ROMMA est une association bénévole à but non lucratif. Votre soutien est indispensable : ADHERER à ROMMA ou FAIRE un DON

Lyon - (69, Rhône)

Plaine lyonnaise (169 m)   Longitude: 04° 49' 55" E   Latitude: 45° 43' 50" N Station partenaire n°124
 

Détail journalier du     <<     >>

Température Precipitation Humidité Pression Vent Dir Rafale Dir. rafale Ensol.
Heure (°C) (mm) (%) (hPa) (km/h) (km/h) (min)
01:00 12.109010191---8NO0
02:00 12.408710192SE10SE0
03:00 10.909010201SE5SE0
04:00 10.209210201---5SE0
05:00 9.809410201---6NO0
06:00 9.7094102103---0
07:00 10.70.3951021010---0
08:00 10.409410221---5SE0
09:00 11.0095102303SE0
10:00 12.6095102305SE0
11:00 15.408110233SE13O40
12:00 17.407210236NE16N60
13:00 18.206710235NE16NO40
14:00 17.707010226NE18NO10
15:00 18.806810227NE19NO40
16:00 19.106510217NE16NE40
17:00 18.706710217N19N50
18:00 17.806910216NE18NE10
19:00 15.907610224N10NO0
20:00 13.808210222---8NO0
21:00 12.208910222O5NO0
22:00 11.409210231---6SO0
23:00 10.809310222SO5SO0
minuit 10.109310221SO3SO0

Graphique du 25-10-2019

 

Serveur OMMA